Terminal Aerodrome Forecast
Issued by NWS Pocatello, ID

Home | Current Version | Previous Version | Text Only | Print | Product List | Glossary On
Versions: 1 2 3 4 5 6 7 8 9 10 11 12 13 14
000
FTUS45 KPIH 070520
TAFIDA
TAF
KIDA 070520Z 0706/0806 28007KT P6SM -SHRA SCT035 BKN060 OVC140
      TEMPO 0707/0711 4SM -SHRA BR BKN025 OVC060
     FM071100 27007KT P6SM -SHRA SCT008 BKN015 OVC030
     FM071300 23010KT P6SM VCSH BKN008 OVC015
     FM071700 34010KT P6SM VCSH SCT015 BKN025 BKN100
     FM080000 03010KT P6SM VCTS SCT025 SCT040CB BKN140=

USA.gov is the U.S. government's official web portal to all federal, state and local government web resources and services.